Home > Products > Valid Products > TAF

000
FTUS43 KMQT 250500
TAFSAW
TAF
KSAW 250537Z 2506/2606 22008KT P6SM SCT200 WS010/26035KT
     FM250900 26010KT P6SM SKC WS010/30035KT
     FM251400 29018G28KT P6SM SKC
     FM252300 29011KT P6SM SKC
      AMD LTD TO CLD VIS AND WIND TIL 251000=



000
FTUS43 KMQT 250500
TAFCMX
TAF
KCMX 250537Z 2506/2606 28017G24KT P6SM SCT200
     FM251300 28025G33KT P6SM SKC
     FM252300 29016G23KT P6SM SKC=



000
FTUS43 KMQT 250300 AAA
TAFSAW
TAF AMD
KSAW 250327Z 2503/2524 20010KT P6SM BKN017 WS010/26030KT
      TEMPO 2504/2506 SCT017
     FM250600 22008KT P6SM SCT017 WS010/26035KT
     FM250900 26009KT P6SM SKC WS010/30035KT
     FM251400 28016G26KT P6SM SKC
      AMD LTD TO CLD VIS AND WIND 2502/2510=



000
FTUS43 KMQT 242300
TAFSAW
TAF
KSAW 242338Z 2500/2524 19010KT P6SM SCT040 WS005/20030KT
     FM250200 20010KT P6SM BKN025 WS005/24035KT
     FM250600 22008KT P6SM SCT025 WS010/26035KT
     FM250900 26009KT P6SM SKC WS010/30035KT
     FM251400 28016G26KT P6SM SKC
      AMD LTD TO CLD VIS AND WIND 2502/2510=



000
FTUS43 KMQT 242300
TAFCMX
TAF
KCMX 242338Z 2500/2524 19006KT P6SM SCT040 BKN200 WS010/25030KT
     FM250300 25010KT P6SM BKN200
     FM250600 28017G24KT P6SM SCT200
     FM251300 28024G33KT P6SM SKC=



000
FTUS43 KMQT 241800 AAA
TAFSAW
TAF AMD
KSAW 241853Z 2419/2518 20009KT P6SM SCT110
     FM250600 24010KT P6SM BKN004 WS020/32035KT
     FM250900 26008KT P6SM SCT008 WS020/30035KT
     FM251400 28011G22KT P6SM SKC
      AMD LTD TO CLD VIS AND WIND 2502/2510=



000
FTUS43 KMQT 241700
TAFSAW
TAF
KSAW 241735Z 2418/2518 20009KT P6SM BKN110
      TEMPO 2418/2419 BKN003
     FM250600 24010KT P6SM BKN004 WS020/32035KT
     FM250900 26008KT P6SM SCT008 WS020/30035KT
     FM251400 28011G22KT P6SM SKC
      AMD LTD TO CLD VIS AND WIND 2502/2510=



000
FTUS43 KMQT 241700
TAFCMX
TAF
KCMX 241735Z 2418/2518 20005KT P6SM SCT140
     FM250100 22009KT P6SM SCT150
     FM250500 25013KT P6SM SCT080
     FM251300 28017G25KT P6SM SKC=



000
FTUS43 KMQT 241700 AAD
TAFSAW
TAF AMD
KSAW 241701Z 2417/2512 20009KT P6SM SCT010
      TEMPO 2417/2418 2SM BR SCT001 BKN003
     FM241900 20011KT P6SM SCT200
     FM250400 23009KT 5SM BR BKN004
     FM250900 26010KT P6SM SCT008
      AMD LTD TO CLD VIS AND WIND 2502/2510=



000
FTUS43 KMQT 241600 AAC
TAFCMX
TAF AMD
KCMX 241611Z 2416/2512 15006KT P6SM SCT003 BKN150
     FM250300 24011KT P6SM SCT130
     FM250900 28015G21KT P6SM FEW150=



000
FTUS43 KMQT 241400 AAC
TAFSAW
TAF AMD
KSAW 241454Z 2415/2512 21004KT 1/4SM FG OVC001
     FM241500 21007KT 4SM BR OVC006
      TEMPO 2415/2417 1/2SM FG SCT001 BKN003
     FM241700 20009KT P6SM SCT010
      TEMPO 2417/2418 5SM BR SCT003 BKN005
     FM241900 20011KT P6SM SCT200
     FM250400 23009KT 5SM BR BKN004
     FM250900 26010KT P6SM SCT008
      AMD LTD TO CLD VIS AND WIND 2502/2510=



000
FTUS43 KMQT 241400 AAB
TAFCMX
TAF AMD
KCMX 241451Z 2415/2512 19004KT 1/4SM FG VV001
     FM241500 19006KT 3SM BR BKN007
      TEMPO 2415/2416 1/2SM FG BKN003
     FM241600 20008KT P6SM BKN150
      TEMPO 2416/2417 4SM BR BKN007
     FM250300 24011KT P6SM SCT130
     FM250900 28015G21KT P6SM FEW150=



000
FTUS43 KMQT 241300 AAB
TAFSAW
TAF AMD
KSAW 241350Z 2414/2512 21004KT 1/4SM FG OVC001
     FM241500 21007KT 4SM BR OVC006
     FM241700 20009KT P6SM SCT010
     FM241900 20011KT P6SM SCT200
     FM250400 23009KT 5SM BR BKN004
     FM250900 26010KT P6SM SCT008
      AMD LTD TO CLD VIS AND WIND 2502/2510=



000
FTUS43 KMQT 241300 AAA
TAFCMX
TAF AMD
KCMX 241348Z 2414/2512 19004KT 1/4SM FG VV001
     FM241500 19006KT 3SM BR BKN007
     FM241600 20008KT P6SM BKN150
     FM250300 24011KT P6SM SCT130
     FM250900 28015G21KT P6SM FEW150=



000
FTUS43 KMQT 241100 AAA
TAFSAW
TAF AMD
KSAW 241153Z 2412/2512 21004KT 1SM BR OVC003
      TEMPO 2412/2414 1/2SM FG OVC001
     FM241500 21007KT 6SM BR OVC006
     FM241700 20009KT P6SM SCT010
     FM241900 20011KT P6SM SCT200
     FM250400 23009KT 5SM BR BKN004
     FM250900 26010KT P6SM SCT008
      AMD LTD TO CLD VIS AND WIND 2502/2510=



000
FTUS43 KMQT 241100
TAFSAW
TAF
KSAW 241136Z 2412/2512 21004KT 1SM BR OVC003
     FM241500 21007KT 6SM BR OVC006
     FM241700 20009KT P6SM SCT010
     FM241900 20011KT P6SM SCT200
     FM250400 23009KT 5SM BR BKN004
     FM250900 26010KT P6SM SCT008
      AMD LTD TO CLD VIS AND WIND 2502/2510=



000
FTUS43 KMQT 241100
TAFCMX
TAF
KCMX 241136Z 2412/2512 19004KT 1/2SM FG VV001
      TEMPO 2412/2413 1/4SM FG
     FM241400 19006KT 3SM BR BKN007
     FM241500 20008KT P6SM BKN150
     FM250300 24011KT P6SM SCT130
     FM250900 28015G21KT P6SM FEW150=



000
FTUS43 KMQT 240800 AAA
TAFCMX
TAF AMD
KCMX 240844Z 2409/2506 21004KT 2SM BR VV002
      TEMPO 2409/2413 1/4SM FG
     FM241300 21004KT 3SM BR BKN006
     FM241400 22008KT P6SM SCT120=



000
FTUS43 KMQT 240800 AAA
TAFSAW
TAF AMD
KSAW 240803Z 2408/2506 22005KT 1/2SM FG OVC001
     FM241400 20004KT 4SM BR BKN006
     FM241500 20010KT P6SM SCT120
      AMD LTD TO CLD VIS AND WIND TIL 241000=



000
FTUS43 KMQT 240500
TAFCMX
TAF
KCMX 240532Z 2406/2506 21004KT 2SM BR VV002
     FM241300 21004KT 3SM BR BKN006
     FM241400 22008KT P6SM SCT120=



000
FTUS43 KMQT 240500
TAFSAW
TAF
KSAW 240532Z 2406/2506 22005KT 3SM BR OVC003
     FM240900 20003KT 1/2SM FG OVC002
     FM241400 20004KT 4SM BR BKN006
     FM241500 20010KT P6SM SCT120
      AMD LTD TO CLD VIS AND WIND TIL 241000=



000
FTUS43 KMQT 240200 AAB
TAFCMX
TAF AMD
KCMX 240254Z 2403/2424 21004KT 1SM BR VV002
     FM240700 21004KT 3SM BR BKN006
     FM240900 23004KT P6SM SCT010
     FM241300 22008KT P6SM SCT120=



000
FTUS43 KMQT 240200 AAB
TAFCMX
TAF AMD
KCMX 240254Z 2403/2424 21004KT 1SM BR VV002
     FM240700 21004KT 3SM BR BKN006
     FM240900 23004KT P6SM SCT010
     FM241300 22008KT P6SM SCT120=



000
FTUS43 KMQT 240100 AAA
TAFCMX
TAF AMD
KCMX 240107Z 2401/2424 21004KT 2SM BR OVC004
      TEMPO 2402/2404 SCT004 OVC006
     FM240400 21004KT 3SM BR OVC006
     FM240600 22004KT 5SM BR BKN010
     FM240800 23004KT P6SM SCT010
     FM241300 22008KT P6SM SCT120=



000
FTUS43 KMQT 240100 AAA
TAFSAW
TAF AMD
KSAW 240105Z 2401/2424 19009KT 3SM BR OVC004
     FM240600 20003KT 1/2SM FG OVC002
     FM241300 20004KT 4SM BR SCT004 BKN010
     FM241400 21007KT P6SM SCT015
     FM241500 20010KT P6SM SCT120
      AMD LTD TO CLD VIS AND WIND 2402/2410=



000
FTUS43 KMQT 232300
TAFCMX
TAF
KCMX 232337Z 2400/2424 20004KT 5SM BR OVC004
      TEMPO 2400/2401 SCT004 OVC006
     FM240100 21004KT 3SM BR OVC008
     FM240400 22004KT 5SM BR BKN010
     FM240700 23004KT P6SM SCT010
     FM241300 22008KT P6SM SCT120=



000
FTUS43 KMQT 232300
TAFSAW
TAF
KSAW 232337Z 2400/2424 19009KT 6SM -DZ BR SCT008 OVC015
     FM240100 20006KT 5SM BR OVC008
     FM240400 20003KT 1SM BR OVC002
     FM241300 20004KT 4SM BR SCT004 BKN010
     FM241400 21007KT P6SM SCT015
     FM241500 20010KT P6SM SCT120
      AMD LTD TO CLD VIS AND WIND 2402/2410=



000
FTUS43 KMQT 232100 AAA
TAFCMX
TAF AMD
KCMX 232143Z 2322/2418 19004KT 3SM BR OVC002
     FM240200 21004KT 3SM BR BKN006
     FM240400 23004KT P6SM SCT006
     FM241300 21007KT P6SM SCT120=



000
FTUS43 KMQT 232100 AAA
TAFCMX
TAF AMD
KCMX 232143Z 2322/2418 19004KT 3SM BR OVC002
     FM240200 21004KT 3SM BR BKN006
     FM240400 23004KT P6SM SCT006
     FM241300 21007KT P6SM SCT120=



000
FTUS43 KMQT 231700
TAFCMX
TAF
KCMX 231738Z 2318/2418 19009KT P6SM -SHRA OVC025
     FM232000 19004KT P6SM OVC015
     FM240300 21004KT P6SM SCT020
     FM240500 22004KT P6SM SCT040
     FM241100 18003KT P6SM SCT140
     FM241700 22007KT P6SM SCT140=



000
FTUS43 KMQT 231700
TAFSAW
TAF
KSAW 231738Z 2318/2418 19013KT P6SM -SHRA OVC040
     FM232100 19009KT P6SM -SHRA OVC020
     FM240400 22005KT P6SM OVC010
     FM240900 22003KT 3SM BR BKN003
     FM241300 21005KT 4SM BR SCT003 BKN015
     FM241500 21008KT 6SM BR SCT020
      AMD LTD TO CLD VIS AND WIND 2402/2410=



000
FTUS43 KMQT 231300 AAA
TAFSAW
TAF AMD
KSAW 231359Z 2314/2412 19009KT 4SM BR SCT002
     FM231500 19010KT 6SM BR SCT005
     FM231700 19011KT P6SM VCSH OVC040
     FM232100 19009KT P6SM -SHRA OVC025
     FM240000 20007KT P6SM VCSH OVC015
     FM240300 21005KT P6SM OVC015
     FM240900 23003KT 3SM BR BKN003
      AMD LTD TO CLD VIS AND WIND 2402/2410=



000
FTUS43 KMQT 231100
TAFSAW
TAF
KSAW 231120Z 2312/2412 19009KT 3SM BR BKN002
     FM231500 19010KT 6SM BR BKN005
     FM231700 19011KT P6SM VCSH SCT005 OVC040
     FM232100 19009KT P6SM -SHRA OVC025
     FM240000 20007KT P6SM VCSH OVC015
     FM240300 21005KT P6SM OVC015
     FM240900 23003KT 3SM BR BKN003
      AMD LTD TO CLD VIS AND WIND 2402/2410=



000
FTUS43 KMQT 231100
TAFCMX
TAF
KCMX 231120Z 2312/2412 17007KT P6SM VCSH OVC045
     FM231500 18008KT P6SM -SHRA OVC025
     FM232000 19005KT P6SM VCSH OVC015
     FM240000 19004KT P6SM BKN020
     FM240400 22004KT P6SM SCT020
     FM240900 21004KT 6SM BR SCT003=



000
FTUS43 KMQT 230500
TAFSAW
TAF
KSAW 230521Z 2306/2406 19007KT 1SM BR OVC002
     FM231400 18010KT P6SM BKN060
     FM232100 18010KT P6SM VCSH BKN025
     FM240200 19004KT P6SM OVC010
      AMD LTD TO CLD VIS AND WIND TIL 231000=



000
FTUS43 KMQT 230500
TAFCMX
TAF
KCMX 230521Z 2306/2406 17006KT P6SM VCSH BKN060
     FM231700 16007KT P6SM -SHRA BKN025
     FM231900 18006KT P6SM -SHRA OVC010
     FM232200 20004KT P6SM BKN010
     FM240200 22003KT 6SM BR SCT010=



000
FTUS43 KMQT 230300 AAA
TAFSAW
TAF AMD
KSAW 230348Z 2304/2324 18010KT 1SM BR OVC002
     FM231400 18010KT P6SM BKN060
     FM232100 18010KT P6SM VCSH BKN025
      AMD LTD TO CLD VIS AND WIND 2302/2310=



000
FTUS43 KMQT 230300 AAA
TAFSAW
TAF AMD
KSAW 230348Z 2304/2324 18010KT 1SM BR OVC002
     FM231400 18010KT P6SM BKN060
     FM232100 18010KT P6SM VCSH BKN025
      AMD LTD TO CLD VIS AND WIND 2302/2310=



000
FTUS43 KMQT 222300
TAFSAW
TAF
KSAW 222336Z 2300/2324 17010KT P6SM SKC
     FM230900 19007KT 3SM BR BKN010
     FM231400 18010KT P6SM BKN100
     FM232100 18010KT P6SM VCSH BKN025
      AMD LTD TO CLD VIS AND WIND 2302/2310=



000
FTUS43 KMQT 222300
TAFCMX
TAF
KCMX 222336Z 2300/2324 14006KT P6SM SKC
     FM230300 16007KT P6SM BKN060
     FM230700 17006KT P6SM VCSH BKN060
     FM231600 17007KT P6SM -SHRA BKN025
     FM232000 21006KT P6SM OVC015=



000
FTUS43 KMQT 221700
TAFSAW
TAF
KSAW 221720Z 2218/2318 18012KT P6SM BKN015
     FM221900 18012KT P6SM SCT020
     FM231000 19007KT P6SM BKN010
      AMD LTD TO CLD VIS AND WIND 2302/2310=



000
FTUS43 KMQT 221700
TAFCMX
TAF
KCMX 221720Z 2218/2318 14009KT P6SM SCT200
     FM230300 16007KT P6SM SCT100
     FM230700 17006KT P6SM VCSH BKN080
     FM231500 17007KT P6SM -SHRA BKN025=



000
FTUS43 KMQT 221700
TAFCMX
TAF
KCMX 221720Z 2218/2318 14009KT P6SM SCT200
     FM230300 16007KT P6SM SCT100
     FM230700 17006KT P6SM VCSH BKN080
     FM231500 17007KT P6SM -SHRA BKN025=



000
FTUS43 KMQT 221700
TAFSAW
TAF
KSAW 221720Z 2218/2318 18012KT P6SM BKN015
     FM221900 18012KT P6SM SCT020
     FM231000 19007KT P6SM BKN010
      AMD LTD TO CLD VIS AND WIND 2302/2310=



000
FTUS43 KMQT 221500 AAB
TAFSAW
TAF AMD
KSAW 221522Z 2215/2312 00000KT 1/4SM FZFG OVC001
     FM221630 18005KT P6SM SCT007
     FM221700 18010KT P6SM FEW250
     FM230800 19007KT P6SM BKN003
      AMD LTD TO CLD VIS AND WIND 2302/2310=



000
FTUS43 KMQT 221200 AAA
TAFSAW
TAF AMD
KSAW 221237Z 2213/2312 00000KT 1/4SM FZFG OVC001
     FM221430 18005KT P6SM SCT007
     FM221600 18010KT P6SM FEW250
     FM230800 19007KT P6SM BKN003
      AMD LTD TO CLD VIS AND WIND 2302/2310=



000
FTUS43 KMQT 221100
TAFSAW
TAF
KSAW 221126Z 2212/2312 20003KT 3SM BR BKN002
     FM221400 18005KT P6SM SCT007
     FM221600 18010KT P6SM FEW250
     FM230800 19007KT P6SM BKN003
      AMD LTD TO CLD VIS AND WIND 2302/2310=



000
FTUS43 KMQT 221100
TAFCMX
TAF
KCMX 221126Z 2212/2312 16005KT P6SM SKC
     FM221700 14009KT P6SM FEW250
     FM230300 16007KT P6SM SCT120
     FM230700 17006KT P6SM VCSH BKN080=



000
FTUS43 KMQT 221100 AAA
TAFSAW
TAF AMD
KSAW 221104Z 2211/2306 22003KT P6SM SKC
      TEMPO 2211/2212 BKN003
     FM221200 18003KT 3SM BR BKN002
     FM221400 18005KT P6SM SCT007
     FM221600 18010KT P6SM FEW250=



    US Dept of Commerce
    National Oceanic and Atmospheric Administration
    National Weather Service
    1325 East West Highway
    Silver Spring, MD 20910
    Page Author: NWS Internet Services Team
Disclaimer
Information Quality
Credits
Glossary
Privacy Policy
Freedom of Information Act (FOIA)
About Us
Career Opportunities